Time;durP1;ratioP1;P1;durP2;ratioP2;P2;SDS_P1;SDS_P2;PMS_P1;PMS_P2;Temp;Humidity;BMP_temperature;BMP_pressure;BME280_temperature;BME280_humidity;BME280_pressure;Samples;Min_cycle;Max_cycle;Signal;HPM_P1;HPM_P2
2023/08/25 00:00:15;;;;;;;1.40;1.23;;;18.70;99.90;;;;;;5068232;28;20461;-74
2023/08/25 00:02:42;;;;;;;1.40;0.70;;;18.70;99.90;;;;;;5066286;28;20866;-73
2023/08/25 00:05:09;;;;;;;3.03;0.70;;;18.70;99.90;;;;;;5066243;28;20492;-75
2023/08/25 00:07:36;;;;;;;2.60;0.70;;;18.70;99.90;;;;;;5074165;28;20434;-73
2023/08/25 00:10:06;;;;;;;1.43;1.07;;;18.60;99.90;;;;;;5084803;28;20489;-73
2023/08/25 00:12:33;;;;;;;0.70;0.50;;;18.60;99.90;;;;;;5086356;28;20972;-73
2023/08/25 00:15:01;;;;;;;1.90;0.60;;;18.70;99.90;;;;;;5076391;28;20448;-75
2023/08/25 00:17:28;;;;;;;1.47;0.80;;;18.70;99.90;;;;;;5069748;28;20516;-73
2023/08/25 00:19:55;;;;;;;3.87;1.00;;;18.70;99.90;;;;;;5068337;28;20444;-73
2023/08/25 00:22:22;;;;;;;6.17;0.67;;;18.70;99.90;;;;;;5066701;28;20477;-74
2023/08/25 00:24:49;;;;;;;3.03;0.80;;;18.70;99.90;;;;;;5067290;28;20450;-77
2023/08/25 00:27:17;;;;;;;1.20;0.60;;;18.70;99.90;;;;;;5067461;28;20480;-74
2023/08/25 00:29:44;;;;;;;1.00;0.57;;;18.70;99.90;;;;;;5067458;28;20492;-74
2023/08/25 00:32:11;;;;;;;5.20;0.73;;;18.70;99.90;;;;;;5072222;28;20895;-74
2023/08/25 00:34:38;;;;;;;1.43;0.57;;;18.80;99.90;;;;;;5069483;28;20508;-74
2023/08/25 00:37:05;;;;;;;1.27;0.80;;;18.90;99.90;;;;;;5062136;28;20513;-75
2023/08/25 00:39:32;;;;;;;2.00;1.10;;;18.80;99.90;;;;;;5064994;28;20457;-75
2023/08/25 00:41:59;;;;;;;2.20;0.70;;;18.90;99.90;;;;;;5050334;28;20458;-74
2023/08/25 00:44:27;;;;;;;0.70;0.70;;;19.10;99.90;;;;;;5067151;28;20458;-75
2023/08/25 00:46:54;;;;;;;2.37;0.80;;;19.20;99.90;;;;;;5066145;28;21064;-74
2023/08/25 00:49:22;;;;;;;2.77;1.00;;;19.20;99.90;;;;;;5067287;28;20447;-76
2023/08/25 00:51:50;;;;;;;6.60;1.20;;;19.20;99.90;;;;;;5066359;28;20556;-75
2023/08/25 00:54:17;;;;;;;3.93;0.97;;;19.10;99.90;;;;;;5068230;28;20536;-75
2023/08/25 00:56:44;;;;;;;1.17;0.80;;;19.20;99.90;;;;;;5066272;28;20461;-75
2023/08/25 00:59:11;;;;;;;1.20;1.20;;;19.20;99.90;;;;;;5067925;28;20537;-75
2023/08/25 01:01:40;;;;;;;3.30;0.83;;;19.10;99.90;;;;;;5061515;28;20964;-77
2023/08/25 01:04:08;;;;;;;1.50;0.70;;;19.10;99.90;;;;;;5065857;28;20998;-74
2023/08/25 01:06:35;;;;;;;4.73;1.00;;;19.20;99.90;;;;;;5074517;28;20550;-75
2023/08/25 01:09:04;;;;;;;1.80;0.70;;;19.20;99.90;;;;;;5063212;28;20862;-75
2023/08/25 01:11:44;;;;;;;1.43;0.70;;;19.10;99.90;;;;;;5066989;28;20487;-76
2023/08/25 01:14:21;;;;;;;1.77;0.67;;;19.10;99.90;;;;;;5063651;28;20452;-75
2023/08/25 01:16:57;;;;;;;2.70;0.60;;;19.10;99.90;;;;;;5067916;28;20561;-78
2023/08/25 01:19:51;;;;;;;2.10;0.70;;;19.20;99.90;;;;;;5067038;28;20439;-76
2023/08/25 01:22:24;;;;;;;4.47;1.23;;;19.20;99.90;;;;;;5066009;28;20555;-76
2023/08/25 01:24:55;;;;;;;1.87;0.80;;;19.20;99.90;;;;;;5053021;28;20922;-78
2023/08/25 01:27:24;;;;;;;2.00;0.70;;;19.20;99.90;;;;;;5065095;28;20491;-74
2023/08/25 01:29:51;;;;;;;3.10;1.17;;;19.20;99.90;;;;;;5053330;28;20443;-74
2023/08/25 01:32:19;;;;;;;5.97;0.90;;;19.20;99.90;;;;;;5084233;28;20491;-78
2023/08/25 01:34:46;;;;;;;2.13;0.80;;;19.20;99.90;;;;;;5092604;28;20458;-74
2023/08/25 01:37:19;;;;;;;1.67;0.90;;;19.10;99.90;;;;;;5080295;28;20464;-76
2023/08/25 01:39:50;;;;;;;5.13;1.13;;;19.10;99.90;;;;;;5071298;28;20530;-78
2023/08/25 01:42:18;;;;;;;3.57;0.97;;;19.10;99.90;;;;;;5067051;28;20735;-77
2023/08/25 01:44:47;;;;;;;2.00;0.90;;;19.10;99.90;;;;;;5065757;28;21008;-75
2023/08/25 01:47:17;;;;;;;2.50;0.80;;;19.30;99.90;;;;;;5065937;28;20458;-74
2023/08/25 01:49:45;;;;;;;2.30;1.10;;;19.30;99.90;;;;;;5066322;28;20522;-77
2023/08/25 01:52:12;;;;;;;2.77;1.30;;;19.30;99.90;;;;;;5070688;28;21039;-74
2023/08/25 01:54:39;;;;;;;2.53;0.90;;;19.20;99.90;;;;;;5065925;28;20470;-74
2023/08/25 01:57:06;;;;;;;1.50;0.83;;;19.30;99.90;;;;;;5065411;28;20454;-75
2023/08/25 01:59:33;;;;;;;2.00;1.67;;;19.30;99.90;;;;;;5066599;28;20870;-74
2023/08/25 02:02:02;;;;;;;3.27;0.63;;;19.30;99.90;;;;;;5066007;28;20489;-75
2023/08/25 02:04:28;;;;;;;4.67;1.13;;;19.30;99.90;;;;;;5066796;28;20448;-77
2023/08/25 02:06:55;;;;;;;1.80;0.90;;;19.30;99.90;;;;;;5064954;28;20527;-75
2023/08/25 02:09:23;;;;;;;2.60;0.73;;;19.30;99.90;;;;;;5069113;28;20462;-75
2023/08/25 02:11:50;;;;;;;0.80;0.60;;;19.20;99.90;;;;;;5066740;28;20478;-78
2023/08/25 02:14:17;;;;;;;1.37;0.67;;;19.20;99.90;;;;;;5065068;28;20519;-79
2023/08/25 02:16:44;;;;;;;1.83;0.70;;;19.20;99.90;;;;;;5064285;28;20858;-78
2023/08/25 02:19:13;;;;;;;2.83;2.50;;;19.10;99.90;;;;;;5064847;28;20466;-76
2023/08/25 02:21:39;;;;;;;1.37;0.93;;;19.00;99.90;;;;;;5064762;28;20458;-80
2023/08/25 02:24:06;;;;;;;1.43;0.90;;;19.00;99.90;;;;;;5066121;28;20436;-76
2023/08/25 02:26:34;;;;;;;2.57;1.00;;;18.90;99.90;;;;;;5066718;28;20523;-77
2023/08/25 02:29:01;;;;;;;1.10;0.90;;;18.80;99.90;;;;;;5068779;28;20456;-76
2023/08/25 02:31:27;;;;;;;2.00;0.93;;;18.70;99.90;;;;;;5069094;28;20487;-76
2023/08/25 02:33:54;;;;;;;1.20;0.90;;;18.70;99.90;;;;;;5069451;28;20479;-80
2023/08/25 02:36:23;;;;;;;2.17;1.10;;;18.70;99.90;;;;;;5065565;28;20451;-76
2023/08/25 02:38:50;;;;;;;3.57;1.07;;;18.60;99.90;;;;;;5069718;28;20444;-76
2023/08/25 02:41:17;;;;;;;1.73;0.73;;;18.60;99.90;;;;;;5068568;28;20557;-78
2023/08/25 02:43:43;;;;;;;1.40;0.80;;;18.50;99.90;;;;;;5070460;28;20494;-76
2023/08/25 02:46:11;;;;;;;3.83;1.20;;;18.50;99.90;;;;;;5067848;28;20447;-76
2023/08/25 02:48:38;;;;;;;2.97;1.10;;;18.50;99.90;;;;;;5068638;28;20543;-77
2023/08/25 02:51:05;;;;;;;1.00;0.90;;;18.50;99.90;;;;;;5068325;28;20480;-76
2023/08/25 02:53:33;;;;;;;1.87;1.10;;;18.50;99.90;;;;;;5069485;28;20458;-76
2023/08/25 02:56:00;;;;;;;1.87;0.87;;;18.40;99.90;;;;;;5065410;28;20525;-77
2023/08/25 02:58:27;;;;;;;0.73;0.73;;;18.40;99.90;;;;;;5066751;28;20468;-76
2023/08/25 03:00:54;;;;;;;2.00;1.10;;;18.40;99.90;;;;;;5071618;28;20480;-79
2023/08/25 03:03:21;;;;;;;4.63;1.00;;;18.40;99.90;;;;;;5065973;28;20954;-77
2023/08/25 03:05:49;;;;;;;1.00;0.70;;;18.30;99.90;;;;;;5064200;28;20493;-80
2023/08/25 03:08:18;;;;;;;1.37;1.13;;;18.20;99.90;;;;;;5067553;28;20547;-80
2023/08/25 03:10:47;;;;;;;5.27;1.20;;;18.20;99.90;;;;;;5068283;28;20945;-77
2023/08/25 03:13:14;;;;;;;1.53;1.00;;;18.10;99.90;;;;;;5061419;28;20940;-74
2023/08/25 03:15:41;;;;;;;3.90;1.20;;;18.10;99.90;;;;;;5068663;28;20453;-77
2023/08/25 03:18:08;;;;;;;2.40;0.87;;;18.00;99.90;;;;;;5069851;28;20527;-74
2023/08/25 03:20:35;;;;;;;2.40;1.10;;;18.00;99.90;;;;;;5068381;28;20520;-75
2023/08/25 03:23:01;;;;;;;1.10;1.00;;;18.00;99.90;;;;;;5067226;28;21205;-77
2023/08/25 03:25:28;;;;;;;1.23;1.13;;;18.00;99.90;;;;;;5064527;28;20468;-74
2023/08/25 03:27:57;;;;;;;4.70;1.90;;;17.90;99.90;;;;;;5067892;28;21060;-74
2023/08/25 03:30:24;;;;;;;8.37;2.00;;;17.90;99.90;;;;;;5067101;28;20463;-78
2023/08/25 03:32:52;;;;;;;2.87;1.83;;;18.00;99.90;;;;;;5068954;28;20476;-77
2023/08/25 03:35:19;;;;;;;3.33;1.97;;;18.00;99.90;;;;;;5059538;28;20546;-75
2023/08/25 03:37:46;;;;;;;4.80;2.20;;;17.90;99.90;;;;;;5061605;28;20441;-75
2023/08/25 03:40:13;;;;;;;3.17;2.97;;;18.00;99.90;;;;;;5066974;28;20467;-78
2023/08/25 03:42:40;;;;;;;3.30;2.80;;;17.90;99.90;;;;;;5053843;28;20445;-77
2023/08/25 03:45:09;;;;;;;3.40;3.00;;;17.80;99.90;;;;;;5059772;28;20496;-75
2023/08/25 03:47:36;;;;;;;20.40;5.47;;;17.80;99.90;;;;;;5063851;28;20513;-75
2023/08/25 03:50:04;;;;;;;4.97;4.57;;;17.80;99.90;;;;;;5063819;28;20471;-75
2023/08/25 03:52:31;;;;;;;5.40;2.80;;;17.80;99.90;;;;;;5065352;28;20491;-75
2023/08/25 03:54:58;;;;;;;3.30;3.00;;;17.70;99.90;;;;;;5056249;28;20478;-75
2023/08/25 03:57:25;;;;;;;3.43;2.63;;;17.70;99.90;;;;;;5059934;28;20512;-73
2023/08/25 03:59:52;;;;;;;3.43;2.23;;;17.70;99.90;;;;;;5051348;28;20527;-75
2023/08/25 04:02:20;;;;;;;3.50;1.77;;;17.80;99.90;;;;;;5061094;28;20905;-75
2023/08/25 04:04:47;;;;;;;6.83;4.10;;;17.70;99.90;;;;;;5059205;28;21016;-78
2023/08/25 04:07:14;;;;;;;3.63;2.73;;;17.80;99.90;;;;;;5067258;28;20477;-75
2023/08/25 04:09:41;;;;;;;3.70;2.00;;;17.80;99.90;;;;;;5064831;28;20501;-77
2023/08/25 04:12:08;;;;;;;2.40;2.00;;;17.80;99.90;;;;;;5066551;28;20487;-75
2023/08/25 04:14:35;;;;;;;2.50;1.60;;;17.80;99.90;;;;;;5063661;28;20487;-75
2023/08/25 04:17:02;;;;;;;3.90;1.73;;;17.80;99.90;;;;;;5064713;28;20529;-73
2023/08/25 04:19:31;;;;;;;3.07;1.80;;;17.80;99.90;;;;;;5066679;28;20445;-75
2023/08/25 04:21:59;;;;;;;1.70;1.33;;;17.80;99.90;;;;;;5065965;28;20487;-77
2023/08/25 04:24:26;;;;;;;2.83;2.33;;;17.70;99.90;;;;;;5066185;28;20465;-75
2023/08/25 04:26:53;;;;;;;3.57;1.90;;;17.60;99.90;;;;;;5065029;28;20570;-74
2023/08/25 04:29:20;;;;;;;2.67;1.60;;;17.70;99.90;;;;;;5066603;28;20484;-76
2023/08/25 04:31:48;;;;;;;5.13;2.50;;;17.70;99.90;;;;;;5064891;28;20484;-75
2023/08/25 04:34:15;;;;;;;3.07;2.77;;;17.70;99.90;;;;;;5066960;28;20456;-77
2023/08/25 04:36:45;;;;;;;4.97;2.97;;;18.10;99.90;;;;;;5066979;28;21124;-76
2023/08/25 04:39:13;;;;;;;1.50;1.30;;;18.20;99.90;;;;;;5062295;28;20464;-80
2023/08/25 04:41:41;;;;;;;1.60;1.30;;;18.30;99.90;;;;;;5062235;28;20989;-75
2023/08/25 04:44:08;;;;;;;2.60;2.40;;;18.40;99.90;;;;;;5064587;28;20459;-73
2023/08/25 04:46:35;;;;;;;2.73;2.13;;;18.30;99.90;;;;;;5066411;28;20493;-76
2023/08/25 04:49:02;;;;;;;1.80;1.70;;;18.50;99.90;;;;;;5064709;28;20455;-76
2023/08/25 04:51:29;;;;;;;2.07;1.27;;;18.50;99.90;;;;;;5066092;28;20974;-75
2023/08/25 04:53:57;;;;;;;3.83;1.30;;;18.70;99.90;;;;;;5064157;28;20574;-75
2023/08/25 04:56:24;;;;;;;2.33;2.13;;;18.90;99.90;;;;;;5053721;28;21136;-79
2023/08/25 04:58:51;;;;;;;3.33;1.40;;;18.90;99.90;;;;;;5062889;28;20476;-77
2023/08/25 05:01:18;;;;;;;2.97;2.63;;;19.00;99.90;;;;;;5065421;28;20939;-74
2023/08/25 05:03:45;;;;;;;2.13;2.03;;;18.90;99.90;;;;;;5057752;28;20557;-75
2023/08/25 05:06:12;;;;;;;1.97;1.87;;;19.00;99.90;;;;;;5065428;28;20467;-78
2023/08/25 05:08:40;;;;;;;1.70;1.57;;;19.00;99.90;;;;;;5061992;28;20533;-76
2023/08/25 05:11:09;;;;;;;2.53;1.40;;;19.30;99.90;;;;;;5065770;28;20450;-78
2023/08/25 05:13:36;;;;;;;2.73;1.77;;;19.20;99.90;;;;;;5064313;28;21200;-80
2023/08/25 05:16:03;;;;;;;2.70;1.73;;;19.20;99.90;;;;;;5060826;28;20443;-77
2023/08/25 05:18:31;;;;;;;1.80;1.70;;;19.30;99.90;;;;;;5061727;28;20452;-74
2023/08/25 05:21:00;;;;;;;3.77;2.03;;;19.20;99.90;;;;;;5062325;28;20455;-76
2023/08/25 05:23:27;;;;;;;2.03;1.90;;;19.00;99.90;;;;;;5055265;28;20504;-75
2023/08/25 05:25:55;;;;;;;4.60;1.50;;;19.00;99.90;;;;;;5065495;28;20447;-79
2023/08/25 05:28:23;;;;;;;2.53;1.20;;;19.10;99.90;;;;;;5063633;28;20469;-76
2023/08/25 05:30:50;;;;;;;1.60;1.43;;;19.00;99.90;;;;;;5064513;28;20444;-76
2023/08/25 05:33:17;;;;;;;1.60;1.50;;;19.00;99.90;;;;;;5065723;28;21065;-76
2023/08/25 05:35:44;;;;;;;2.73;2.50;;;19.10;99.90;;;;;;5053404;28;20461;-77
2023/08/25 05:38:11;;;;;;;2.83;2.40;;;19.00;99.90;;;;;;5060680;28;20537;-74
2023/08/25 05:40:39;;;;;;;3.97;1.70;;;19.20;99.90;;;;;;5060912;28;20495;-78
2023/08/25 05:43:06;;;;;;;3.07;2.77;;;19.20;99.90;;;;;;5056028;28;20869;-75
2023/08/25 05:45:34;;;;;;;4.53;1.40;;;19.30;99.90;;;;;;5058711;28;20490;-78
2023/08/25 05:48:01;;;;;;;5.37;3.00;;;19.30;99.90;;;;;;5057714;28;20575;-77
2023/08/25 05:50:28;;;;;;;3.23;2.17;;;19.40;99.90;;;;;;5062822;28;20459;-78
2023/08/25 05:52:55;;;;;;;2.70;2.07;;;19.50;99.90;;;;;;5053646;28;21019;-76
2023/08/25 05:55:22;;;;;;;4.43;1.47;;;19.40;99.90;;;;;;5060277;28;20455;-78
2023/08/25 05:57:49;;;;;;;1.67;1.57;;;19.60;99.90;;;;;;5055082;28;20441;-75
2023/08/25 06:00:18;;;;;;;3.23;1.10;;;19.60;99.90;;;;;;5058175;28;20498;-77
2023/08/25 06:02:46;;;;;;;2.60;1.43;;;19.60;99.90;;;;;;5062576;28;20491;-76
2023/08/25 06:05:13;;;;;;;2.30;1.20;;;19.80;99.90;;;;;;5060356;28;20509;-76
2023/08/25 06:07:40;;;;;;;2.60;1.20;;;19.80;99.90;;;;;;5067560;28;20495;-76
2023/08/25 06:10:08;;;;;;;2.13;1.77;;;20.10;99.90;;;;;;5069456;28;20520;-79
2023/08/25 06:12:35;;;;;;;4.10;3.53;;;20.00;99.90;;;;;;5064898;28;20530;-76
2023/08/25 06:15:02;;;;;;;2.10;1.20;;;20.00;99.90;;;;;;5059762;28;20459;-76
2023/08/25 06:17:29;;;;;;;4.43;1.30;;;20.00;99.90;;;;;;5066969;28;20463;-77
2023/08/25 06:19:57;;;;;;;1.93;1.30;;;20.40;99.90;;;;;;5062701;28;20536;-78
2023/08/25 06:22:24;;;;;;;4.20;1.93;;;20.70;99.90;;;;;;5060267;28;20498;-76
2023/08/25 06:24:51;;;;;;;3.30;1.57;;;20.80;99.90;;;;;;5062600;28;20996;-76
2023/08/25 06:27:18;;;;;;;2.03;1.30;;;20.90;99.90;;;;;;5065090;28;20464;-76
2023/08/25 06:29:45;;;;;;;1.93;1.40;;;21.10;99.90;;;;;;5067395;28;20486;-79
2023/08/25 06:32:13;;;;;;;3.30;2.30;;;21.20;99.90;;;;;;5062670;28;20487;-79
2023/08/25 06:34:40;;;;;;;4.70;1.53;;;21.30;99.90;;;;;;5071533;28;20909;-76
2023/08/25 06:37:08;;;;;;;1.73;1.40;;;21.40;99.90;;;;;;5066105;28;20451;-79
2023/08/25 06:39:35;;;;;;;1.53;1.30;;;21.70;99.90;;;;;;5065563;28;20521;-76
2023/08/25 06:42:02;;;;;;;5.03;1.37;;;21.70;99.90;;;;;;5065340;28;20468;-77
2023/08/25 06:44:29;;;;;;;2.17;1.47;;;21.70;99.90;;;;;;5059321;28;20464;-81
2023/08/25 06:46:56;;;;;;;2.40;1.40;;;21.80;99.90;;;;;;5061990;28;20505;-78
2023/08/25 06:49:23;;;;;;;2.40;1.33;;;22.10;99.90;;;;;;5060196;28;20534;-77
2023/08/25 06:51:50;;;;;;;3.70;1.43;;;22.20;99.90;;;;;;5068238;28;20499;-78
2023/08/25 06:54:19;;;;;;;4.70;1.20;;;22.20;99.90;;;;;;5059903;28;20577;-84
2023/08/25 06:56:46;;;;;;;1.87;0.90;;;22.10;99.90;;;;;;5056799;28;20522;-78
2023/08/25 06:59:14;;;;;;;5.17;1.20;;;22.10;99.90;;;;;;5060979;28;20526;-81
2023/08/25 07:01:41;;;;;;;5.33;1.47;;;22.10;99.90;;;;;;5060605;28;20514;-79
2023/08/25 07:04:08;;;;;;;3.37;1.00;;;22.40;99.90;;;;;;5063054;28;20456;-79
2023/08/25 07:06:36;;;;;;;0.80;0.70;;;22.70;99.90;;;;;;5072191;28;20452;-80
2023/08/25 07:09:03;;;;;;;7.63;1.10;;;22.30;99.90;;;;;;5065537;28;20483;-80
2023/08/25 07:11:32;;;;;;;1.33;0.60;;;22.00;99.90;;;;;;5066869;28;20445;-81
2023/08/25 07:13:59;;;;;;;0.70;0.70;;;21.90;99.90;;;;;;5064196;28;20573;-83
2023/08/25 07:16:26;;;;;;;0.90;0.80;;;22.00;99.90;;;;;;5065847;28;20487;-81
2023/08/25 07:18:53;;;;;;;1.20;0.90;;;21.90;99.90;;;;;;5065025;28;20460;-81
2023/08/25 07:21:19;;;;;;;1.90;1.00;;;21.80;99.90;;;;;;5065977;28;21063;-81
2023/08/25 07:23:47;;;;;;;2.10;1.10;;;21.60;99.90;;;;;;5057828;28;20500;-82
2023/08/25 07:26:14;;;;;;;3.60;1.07;;;22.00;99.90;;;;;;5064861;28;21020;-83
2023/08/25 07:28:42;;;;;;;1.80;0.97;;;22.00;99.90;;;;;;5066163;28;20463;-82
2023/08/25 07:31:09;;;;;;;1.43;1.10;;;22.30;99.90;;;;;;5063345;28;20671;-83
2023/08/25 07:33:36;;;;;;;0.90;0.80;;;22.30;99.90;;;;;;5058468;28;21049;-82
2023/08/25 07:36:04;;;;;;;2.87;1.37;;;22.50;99.90;;;;;;5067303;28;20545;-82
2023/08/25 07:38:31;;;;;;;2.63;1.03;;;22.60;99.90;;;;;;5064434;28;20550;-82
2023/08/25 07:40:58;;;;;;;0.80;0.60;;;22.50;99.90;;;;;;5064420;28;20489;-82
2023/08/25 07:43:25;;;;;;;1.40;0.60;;;22.40;99.90;;;;;;5065564;28;20482;-82
2023/08/25 07:45:55;;;;;;;0.90;0.70;;;22.60;99.90;;;;;;5061370;28;20937;-82
2023/08/25 07:48:22;;;;;;;5.73;0.70;;;22.60;99.90;;;;;;5064769;28;20535;-82
2023/08/25 07:50:49;;;;;;;0.73;0.70;;;22.70;99.90;;;;;;5063647;28;20484;-81
2023/08/25 07:53:17;;;;;;;1.03;0.70;;;23.00;99.90;;;;;;5062718;28;21290;-83
2023/08/25 07:55:44;;;;;;;0.83;0.50;;;23.30;99.90;;;;;;5064900;28;20456;-81
2023/08/25 07:58:11;;;;;;;6.73;1.23;;;23.00;99.90;;;;;;5070268;28;20460;-81
2023/08/25 08:00:38;;;;;;;0.80;0.73;;;22.70;99.90;;;;;;5066331;28;20444;-83
2023/08/25 08:03:08;;;;;;;4.43;0.70;;;22.70;99.90;;;;;;5067609;28;20481;-82
2023/08/25 08:05:36;;;;;;;3.17;1.43;;;23.00;99.90;;;;;;5062700;28;20946;-81
2023/08/25 08:08:03;;;;;;;0.97;0.70;;;23.10;99.90;;;;;;5061742;28;20471;-81
2023/08/25 08:10:30;;;;;;;2.00;0.83;;;23.30;99.90;;;;;;5065545;28;20547;-82
2023/08/25 08:12:57;;;;;;;1.43;0.80;;;23.20;99.90;;;;;;5062373;28;20572;-84
2023/08/25 08:15:25;;;;;;;13.30;0.80;;;23.40;99.90;;;;;;5067313;28;21167;-83
2023/08/25 08:17:52;;;;;;;4.00;2.50;;;23.40;99.90;;;;;;5067134;28;20875;-84
2023/08/25 08:20:21;;;;;;;1.27;0.90;;;23.80;99.90;;;;;;5061363;28;20484;-83
2023/08/25 08:22:48;;;;;;;3.73;1.63;;;23.70;99.90;;;;;;5072910;28;20440;-82
2023/08/25 08:25:15;;;;;;;2.80;1.00;;;23.70;99.90;;;;;;5060494;28;20475;-83
2023/08/25 08:27:43;;;;;;;0.83;0.70;;;23.70;99.90;;;;;;5062956;28;20476;-81
2023/08/25 08:30:11;;;;;;;2.60;0.60;;;23.70;99.90;;;;;;5060443;28;20992;-81
2023/08/25 08:32:39;;;;;;;2.87;1.03;;;24.00;99.90;;;;;;5049869;28;20507;-82
2023/08/25 08:35:08;;;;;;;0.50;0.50;;;23.90;99.90;;;;;;5057058;28;21050;-83
2023/08/25 08:37:37;;;;;;;1.33;0.60;;;23.90;99.90;;;;;;5049743;28;20445;-81
2023/08/25 08:40:05;;;;;;;0.70;0.70;;;24.00;99.90;;;;;;5063882;28;20934;-82
2023/08/25 08:42:33;;;;;;;0.77;0.53;;;24.00;99.90;;;;;;5059810;28;20911;-83
2023/08/25 08:45:04;;;;;;;0.60;0.50;;;24.40;99.90;;;;;;5059646;28;20470;-84
2023/08/25 08:47:33;;;;;;;0.70;0.50;;;24.80;99.90;;;;;;5062910;28;20465;-82
2023/08/25 08:50:00;;;;;;;1.23;0.70;;;24.80;99.90;;;;;;5055923;28;20445;-81
2023/08/25 08:52:28;;;;;;;2.70;0.73;;;24.90;99.90;;;;;;5056817;28;20496;-81
2023/08/25 08:54:57;;;;;;;1.23;0.80;;;25.10;99.90;;;;;;5061708;28;20514;-83
2023/08/25 08:57:24;;;;;;;1.83;0.60;;;24.80;99.90;;;;;;5063803;28;20463;-79
2023/08/25 08:59:52;;;;;;;1.37;0.70;;;24.70;99.90;;;;;;5053101;28;20488;-84
2023/08/25 09:02:21;;;;;;;0.70;0.70;;;24.70;99.90;;;;;;5059635;28;21025;-80
2023/08/25 09:04:53;;;;;;;2.50;1.17;;;25.10;99.90;;;;;;5059746;28;21001;-81
2023/08/25 09:07:21;;;;;;;6.33;1.20;;;25.30;99.90;;;;;;5064335;28;20460;-80
2023/08/25 09:09:50;;;;;;;0.73;0.63;;;25.40;99.90;;;;;;5066322;28;20496;-81
2023/08/25 09:12:20;;;;;;;1.47;0.70;;;25.50;99.90;;;;;;5066668;28;20448;-81
2023/08/25 09:14:47;;;;;;;0.90;0.60;;;25.50;99.90;;;;;;5056708;28;20528;-80
2023/08/25 09:17:16;;;;;;;0.93;0.63;;;25.80;99.90;;;;;;5059278;28;20472;-80
2023/08/25 09:19:43;;;;;;;0.80;0.70;;;25.80;99.90;;;;;;5053858;28;20496;-80
2023/08/25 09:22:13;;;;;;;1.30;0.90;;;25.70;99.90;;;;;;5059001;28;20460;-83
2023/08/25 09:24:43;;;;;;;1.43;0.70;;;25.90;99.90;;;;;;5065653;28;20468;-82
2023/08/25 09:27:24;;;;;;;1.17;0.70;;;26.30;99.90;;;;;;5057683;28;20943;-83
2023/08/25 09:29:58;;;;;;;3.60;0.60;;;26.20;99.90;;;;;;5065542;28;20514;-81
2023/08/25 09:32:28;;;;;;;1.47;0.70;;;26.20;99.90;;;;;;5056140;28;20517;-80
2023/08/25 09:34:55;;;;;;;0.70;0.50;;;26.00;99.90;;;;;;5064195;28;20479;-80
2023/08/25 09:37:22;;;;;;;6.17;0.80;;;26.20;99.90;;;;;;5074426;28;20515;-80
2023/08/25 09:39:49;;;;;;;0.77;0.70;;;26.70;99.90;;;;;;5069560;28;20455;-80
2023/08/25 09:42:17;;;;;;;1.10;0.70;;;26.70;99.90;;;;;;5069106;28;20563;-82
2023/08/25 09:44:46;;;;;;;1.10;0.70;;;26.60;99.90;;;;;;5057744;28;20525;-81
2023/08/25 09:47:14;;;;;;;0.80;0.80;;;26.70;99.90;;;;;;5065811;28;20990;-79
2023/08/25 09:49:42;;;;;;;2.27;0.70;;;27.20;99.90;;;;;;5068849;28;20452;-82
2023/08/25 09:52:13;;;;;;;0.77;0.70;;;27.60;99.90;;;;;;5067911;28;20472;-79
2023/08/25 09:54:40;;;;;;;0.80;0.70;;;27.50;99.90;;;;;;5065083;28;20538;-80
2023/08/25 09:57:07;;;;;;;2.63;0.70;;;27.70;99.90;;;;;;5068314;28;20505;-80
2023/08/25 09:59:35;;;;;;;3.00;0.87;;;27.90;99.90;;;;;;5065812;28;20962;-82
2023/08/25 10:02:04;;;;;;;1.40;0.80;;;28.00;99.90;;;;;;5062783;28;20551;-80
2023/08/25 10:04:31;;;;;;;1.20;0.60;;;27.90;99.90;;;;;;5064937;28;21198;-81
2023/08/25 10:07:00;;;;;;;1.60;0.80;;;28.00;99.90;;;;;;5068387;28;20512;-81
2023/08/25 10:09:27;;;;;;;0.53;0.50;;;27.50;99.90;;;;;;5068360;28;20440;-81
2023/08/25 10:11:58;;;;;;;2.30;0.90;;;27.30;99.90;;;;;;5066146;28;20447;-80
2023/08/25 10:14:26;;;;;;;1.30;0.80;;;27.10;99.90;;;;;;5066055;28;20483;-80
2023/08/25 10:16:54;;;;;;;0.83;0.57;;;27.10;99.90;;;;;;5067921;28;20998;-80
2023/08/25 10:19:24;;;;;;;1.43;0.87;;;26.90;99.90;;;;;;5072313;28;20491;-82
2023/08/25 10:21:52;;;;;;;3.03;1.20;;;27.10;99.90;;;;;;5066532;28;20439;-80
2023/08/25 10:24:20;;;;;;;2.97;1.20;;;27.10;99.90;;;;;;5064001;28;20859;-81
2023/08/25 10:26:49;;;;;;;2.10;0.80;;;27.10;99.90;;;;;;5066995;28;20457;-80
2023/08/25 10:29:18;;;;;;;2.50;0.70;;;27.20;99.90;;;;;;5071501;28;20487;-80
2023/08/25 10:31:47;;;;;;;3.60;0.70;;;27.20;99.90;;;;;;5066000;28;20455;-80
2023/08/25 10:34:35;;;;;;;1.43;0.90;;;27.10;99.90;;;;;;5067206;28;20483;-80
2023/08/25 10:37:06;;;;;;;0.90;0.70;;;27.20;99.90;;;;;;5069372;28;20547;-82
2023/08/25 10:39:49;;;;;;;2.60;0.83;;;27.80;99.90;;;;;;5067432;28;20517;-80
2023/08/25 10:42:20;;;;;;;0.80;0.60;;;28.00;99.90;;;;;;5064714;28;20881;-80
2023/08/25 10:44:47;;;;;;;1.00;0.50;;;28.20;99.90;;;;;;5065741;28;20455;-80
2023/08/25 10:47:19;;;;;;;2.30;0.80;;;28.70;99.70;;;;;;5064071;28;20826;-79
2023/08/25 10:49:47;;;;;;;1.30;0.70;;;28.90;98.50;;;;;;5066089;28;20543;-80
2023/08/25 10:52:16;;;;;;;0.80;0.70;;;28.40;98.20;;;;;;5069843;28;22107;-82
2023/08/25 10:54:45;;;;;;;1.10;0.80;;;28.40;99.20;;;;;;5060895;28;20559;-82
2023/08/25 10:57:39;;;;;;;0.73;0.60;;;28.40;99.50;;;;;;5060290;28;20862;-79
2023/08/25 11:00:25;;;;;;;1.33;0.70;;;28.50;99.20;;;;;;5061181;28;20486;-79
2023/08/25 11:02:52;;;;;;;2.47;0.70;;;28.30;99.10;;;;;;5064438;28;20476;-80
2023/08/25 11:05:43;;;;;;;4.23;0.80;;;28.20;99.90;;;;;;5063180;28;20539;-80
2023/08/25 11:08:29;;;;;;;2.70;0.97;;;28.20;98.80;;;;;;5061123;28;20527;-81
2023/08/25 11:11:11;;;;;;;0.87;0.60;;;28.00;99.20;;;;;;5070019;28;20446;-82
2023/08/25 11:13:40;;;;;;;3.47;0.70;;;27.80;97.30;;;;;;5070965;28;20558;-82
2023/08/25 11:16:08;;;;;;;1.40;0.77;;;28.30;96.60;;;;;;5067985;28;20472;-84
2023/08/25 11:18:35;;;;;;;3.27;0.60;;;28.70;96.30;;;;;;5069288;28;20548;-82
2023/08/25 11:21:04;;;;;;;1.40;1.20;;;28.70;97.70;;;;;;5067734;28;20462;-80
2023/08/25 11:23:42;;;;;;;2.07;0.90;;;28.80;96.30;;;;;;5067143;28;20517;-80
2023/08/25 11:26:09;;;;;;;1.10;0.80;;;28.70;96.20;;;;;;5059163;28;20473;-80
2023/08/25 11:28:36;;;;;;;1.33;0.90;;;28.60;99.30;;;;;;5067883;28;20536;-81
2023/08/25 11:31:05;;;;;;;1.77;0.80;;;28.90;98.90;;;;;;5066905;28;20491;-80
2023/08/25 11:33:33;;;;;;;2.00;1.00;;;29.20;98.90;;;;;;5068322;28;20575;-80
2023/08/25 11:36:00;;;;;;;1.53;1.43;;;29.30;99.60;;;;;;5067531;28;20563;-82
2023/08/25 11:38:30;;;;;;;1.70;1.20;;;29.50;99.30;;;;;;5063144;28;20491;-80
2023/08/25 11:40:57;;;;;;;3.43;1.77;;;29.20;99.90;;;;;;5054750;28;20553;-80
2023/08/25 11:43:29;;;;;;;1.60;0.70;;;29.20;99.90;;;;;;5067348;28;20487;-80
2023/08/25 11:45:56;;;;;;;0.83;0.70;;;29.10;98.60;;;;;;5065659;28;20466;-80
2023/08/25 11:48:23;;;;;;;2.00;0.93;;;29.50;98.60;;;;;;5066597;28;20566;-83
2023/08/25 11:50:50;;;;;;;1.77;1.10;;;29.70;99.90;;;;;;5060006;28;20460;-79
2023/08/25 11:53:17;;;;;;;1.20;0.77;;;29.90;98.90;;;;;;5055552;28;20475;-82
2023/08/25 11:56:00;;;;;;;1.27;0.90;;;29.80;97.60;;;;;;5067705;28;20785;-79
2023/08/25 11:58:32;;;;;;;1.33;0.80;;;29.90;98.60;;;;;;5056418;28;20489;-78
2023/08/25 12:01:06;;;;;;;1.77;0.83;;;30.00;98.50;;;;;;5060945;28;20873;-79
2023/08/25 12:03:33;;;;;;;1.23;0.70;;;29.70;97.90;;;;;;5058520;28;20600;-78
2023/08/25 12:06:00;;;;;;;1.70;1.50;;;29.70;98.80;;;;;;5063234;28;20471;-79
2023/08/25 12:08:27;;;;;;;2.00;1.00;;;29.70;98.00;;;;;;5061508;28;20508;-78
2023/08/25 12:10:56;;;;;;;2.53;0.90;;;29.70;97.80;;;;;;5076735;28;21007;-77
2023/08/25 12:13:30;;;;;;;6.00;0.90;;;29.80;96.40;;;;;;5063852;28;20576;-78
2023/08/25 12:15:58;;;;;;;1.00;0.70;;;29.70;97.70;;;;;;5063524;28;20905;-78
2023/08/25 12:18:32;;;;;;;1.27;0.87;;;29.60;98.00;;;;;;5060716;28;20502;-78
2023/08/25 12:20:59;;;;;;;1.40;0.80;;;29.70;98.50;;;;;;5061399;28;20459;-79
2023/08/25 12:23:32;;;;;;;1.90;1.13;;;29.70;97.20;;;;;;5054873;28;20536;-78
2023/08/25 12:25:59;;;;;;;1.80;1.00;;;29.40;96.10;;;;;;5056942;28;20477;-80
2023/08/25 12:28:28;;;;;;;2.97;1.20;;;29.40;96.90;;;;;;5063192;28;20479;-83
2023/08/25 12:30:55;;;;;;;0.80;0.80;;;29.40;96.70;;;;;;5064849;28;21016;-77
2023/08/25 12:33:22;;;;;;;3.50;1.63;;;29.50;99.70;;;;;;5055242;28;20456;-78
2023/08/25 12:35:50;;;;;;;1.00;0.80;;;29.50;96.60;;;;;;5052884;28;20484;-78
2023/08/25 12:38:17;;;;;;;4.43;0.90;;;29.80;97.00;;;;;;5062708;28;20491;-80
2023/08/25 12:40:44;;;;;;;2.83;1.17;;;30.00;97.80;;;;;;5056180;28;20465;-81
2023/08/25 12:43:11;;;;;;;4.10;1.43;;;29.90;96.20;;;;;;5057910;28;20452;-78
2023/08/25 12:45:39;;;;;;;1.93;1.70;;;29.90;95.50;;;;;;5058879;28;21091;-82
2023/08/25 12:48:07;;;;;;;2.30;1.10;;;30.00;97.50;;;;;;5059368;28;20497;-83
2023/08/25 12:50:34;;;;;;;3.37;1.67;;;30.00;96.10;;;;;;5062087;28;20456;-78
2023/08/25 12:53:01;;;;;;;1.40;1.30;;;30.00;96.70;;;;;;5059615;28;20483;-77